createdAt,value
2019-03-03T00:01:39.241Z,45.83
2019-03-03T00:05:44.284Z,40.20
2019-03-03T00:09:49.329Z,47.93
2019-03-03T00:13:54.333Z,47.30
2019-03-03T00:17:59.473Z,42.40
2019-03-03T00:22:05.110Z,43.17
2019-03-03T00:26:10.126Z,50.30
2019-03-03T00:30:19.153Z,45.40
2019-03-03T00:34:24.450Z,41.20
2019-03-03T00:38:31.385Z,43.77
2019-03-03T00:42:38.282Z,40.33
2019-03-03T00:46:48.357Z,39.40
2019-03-03T00:51:11.586Z,38.83
2019-03-03T00:55:18.517Z,40.27
2019-03-03T00:59:28.145Z,37.33
2019-03-03T01:03:37.554Z,36.83
2019-03-03T01:07:44.469Z,32.87
2019-03-03T01:11:57.576Z,35.03
2019-03-03T01:16:20.443Z,36.98
2019-03-03T01:20:30.296Z,29.70
2019-03-03T01:24:40.248Z,33.10
2019-03-03T01:28:45.249Z,32.50
2019-03-03T01:32:50.234Z,31.80
2019-03-03T01:36:55.505Z,35.30
2019-03-03T01:41:00.814Z,32.53
2019-03-03T01:45:13.787Z,30.33
2019-03-03T01:49:18.783Z,30.90
2019-03-03T01:53:24.069Z,33.67
2019-03-03T01:57:29.354Z,30.20
2019-03-03T02:01:34.733Z,27.13
2019-03-03T02:05:40.251Z,29.60
2019-03-03T02:09:45.542Z,26.70
2019-03-03T02:13:50.861Z,30.93
2019-03-03T02:17:56.146Z,26.43
2019-03-03T02:22:01.437Z,27.93
2019-03-03T02:26:06.889Z,27.87
2019-03-03T02:30:17.024Z,21.37
2019-03-03T02:34:22.317Z,23.63
2019-03-03T02:38:27.626Z,23.73
2019-03-03T02:42:32.981Z,21.07
2019-03-03T02:46:38.262Z,21.33
2019-03-03T02:50:43.562Z,19.10
2019-03-03T02:54:48.834Z,21.30
2019-03-03T02:58:54.103Z,18.07
2019-03-03T03:03:00.754Z,19.98
2019-03-03T03:07:16.667Z,21.13
2019-03-03T03:11:23.687Z,20.03
2019-03-03T03:15:36.405Z,19.17
2019-03-03T03:19:49.335Z,19.07
2019-03-03T03:24:11.614Z,17.30
2019-03-03T03:28:20.957Z,15.97
2019-03-03T03:32:36.764Z,18.70
2019-03-03T03:36:59.929Z,20.47
2019-03-03T03:41:23.117Z,18.53
2019-03-03T03:45:38.565Z,17.17
2019-03-03T03:49:45.461Z,14.87
2019-03-03T03:53:55.167Z,15.97
2019-03-03T03:58:18.491Z,14.83
2019-03-03T04:02:41.554Z,13.83
2019-03-03T04:06:51.157Z,12.97
2019-03-03T04:10:58.080Z,14.73
2019-03-03T04:15:05.387Z,11.53
2019-03-03T04:19:21.474Z,14.80
2019-03-03T04:23:28.480Z,12.47
2019-03-03T04:27:38.315Z,14.20
2019-03-03T04:31:45.282Z,13.43
2019-03-03T04:36:08.799Z,11.27
2019-03-03T04:40:18.672Z,12.57
2019-03-03T04:44:28.554Z,13.03
2019-03-03T04:48:41.460Z,14.40
2019-03-03T04:52:57.590Z,15.83
2019-03-03T04:57:22.862Z,13.60
2019-03-03T05:01:32.492Z,14.90
2019-03-03T05:05:39.413Z,11.57
2019-03-03T05:09:46.385Z,15.47
2019-03-03T05:13:55.699Z,15.57
2019-03-03T05:18:02.983Z,12.87
2019-03-03T05:22:08.267Z,12.00
2019-03-03T05:26:13.609Z,16.50
2019-03-03T05:30:18.924Z,11.40
2019-03-03T05:34:24.197Z,18.30
2019-03-03T05:38:29.574Z,13.77
2019-03-03T05:42:34.866Z,15.33
2019-03-03T05:46:40.171Z,16.27
2019-03-03T05:50:45.634Z,15.47
2019-03-03T05:54:50.894Z,14.17
2019-03-03T05:58:56.172Z,14.00
2019-03-03T06:03:01.433Z,16.67
2019-03-03T06:07:06.699Z,18.33
2019-03-03T06:11:11.961Z,17.27
2019-03-03T06:15:18.445Z,18.47
2019-03-03T06:19:23.709Z,17.30
2019-03-03T06:23:29.053Z,16.53
2019-03-03T06:27:34.353Z,21.03
2019-03-03T06:31:39.701Z,17.63
2019-03-03T06:35:44.969Z,15.07
2019-03-03T06:39:50.243Z,13.67
2019-03-03T06:43:56.099Z,17.87
2019-03-03T06:48:01.357Z,14.13
2019-03-03T06:52:06.637Z,15.77
2019-03-03T06:56:11.915Z,14.50
2019-03-03T07:00:17.617Z,20.10
2019-03-03T07:04:22.910Z,15.83
2019-03-03T07:08:28.208Z,11.60
2019-03-03T07:12:33.560Z,12.93
2019-03-03T07:16:39.766Z,13.27
2019-03-03T07:20:45.204Z,14.00
2019-03-03T07:24:50.488Z,14.97
2019-03-03T07:28:55.769Z,9.40
2019-03-03T07:33:05.472Z,11.87
2019-03-03T07:37:10.767Z,12.17
2019-03-03T07:41:16.013Z,11.40
2019-03-03T07:45:21.298Z,14.83
2019-03-03T07:49:26.590Z,13.93
2019-03-03T07:53:31.890Z,10.43
2019-03-03T07:57:37.216Z,13.20
2019-03-03T08:01:42.542Z,12.93
2019-03-03T08:05:47.910Z,13.60
2019-03-03T08:09:53.194Z,15.17
2019-03-03T08:13:58.477Z,10.23
2019-03-03T08:18:04.974Z,13.70
2019-03-03T08:22:10.272Z,15.17
2019-03-03T08:26:15.530Z,13.07
2019-03-03T08:30:20.814Z,14.93
2019-03-03T08:34:26.104Z,13.93
2019-03-03T08:38:31.373Z,12.83
2019-03-03T08:42:41.277Z,12.37
2019-03-03T08:46:54.210Z,12.80
2019-03-03T08:51:03.847Z,11.90
2019-03-03T08:55:16.483Z,15.60
2019-03-03T08:59:32.210Z,10.73
2019-03-03T09:03:39.138Z,11.43
2019-03-03T09:07:48.865Z,15.57
2019-03-03T09:12:01.766Z,9.93
2019-03-03T09:16:20.732Z,14.77
2019-03-03T09:20:28.062Z,16.63
2019-03-03T09:24:47.368Z,14.70
2019-03-03T09:28:54.298Z,13.17
2019-03-03T09:33:05.156Z,9.93
2019-03-03T09:37:27.345Z,10.47
2019-03-03T09:41:36.978Z,10.83
2019-03-03T09:46:00.512Z,13.50
2019-03-03T09:50:13.101Z,11.07
2019-03-03T09:54:25.893Z,12.87
2019-03-03T09:58:45.403Z,17.10
2019-03-03T10:02:52.473Z,14.73
2019-03-03T10:07:03.354Z,9.90
2019-03-03T10:11:13.053Z,19.13
2019-03-03T10:15:25.978Z,11.30
2019-03-03T10:19:35.855Z,15.93
2019-03-03T10:23:59.494Z,12.60
2019-03-03T10:28:24.977Z,12.43
2019-03-03T10:32:34.350Z,9.47
2019-03-03T10:36:56.553Z,13.60
2019-03-03T10:41:19.562Z,14.40
2019-03-03T10:45:26.503Z,12.43
2019-03-03T10:49:39.305Z,14.67
2019-03-03T10:53:55.070Z,12.40
2019-03-03T10:58:01.970Z,9.60
2019-03-03T11:02:08.958Z,10.03
2019-03-03T11:06:15.889Z,14.53
2019-03-03T11:10:22.821Z,15.63
2019-03-03T11:14:29.814Z,16.83
2019-03-03T11:18:42.995Z,13.07
2019-03-03T11:22:49.938Z,8.40
2019-03-03T11:27:02.614Z,16.63
2019-03-03T11:31:09.542Z,15.70
2019-03-03T11:35:32.605Z,14.40
2019-03-03T11:39:57.973Z,14.17
2019-03-03T11:44:21.271Z,14.30
2019-03-03T11:48:31.142Z,11.03
2019-03-03T11:52:41.007Z,16.50
2019-03-03T11:56:56.986Z,16.40
2019-03-03T12:01:22.379Z,16.10
2019-03-03T12:05:38.033Z,13.77
2019-03-03T12:09:50.999Z,13.27
2019-03-03T12:13:57.998Z,17.47
2019-03-03T12:18:04.902Z,17.17
2019-03-03T12:22:17.566Z,15.20
2019-03-03T12:26:41.053Z,14.60
2019-03-03T12:30:59.839Z,16.70
2019-03-03T12:35:18.321Z,13.60
2019-03-03T12:39:25.691Z,13.10
2019-03-03T12:43:32.656Z,12.93
2019-03-03T12:47:42.847Z,13.37
2019-03-03T12:52:02.101Z,12.27
2019-03-03T12:56:25.525Z,15.57
2019-03-03T13:00:34.997Z,14.40
2019-03-03T13:04:44.597Z,12.90
2019-03-03T13:08:59.871Z,15.67
2019-03-03T13:13:15.404Z,17.37
2019-03-03T13:17:48.017Z,13.60
2019-03-03T13:21:49.094Z,21.27
2019-03-03T13:25:59.042Z,15.77
2019-03-03T13:30:24.817Z,14.43
2019-03-03T13:34:49.911Z,14.83
2019-03-03T13:39:08.650Z,15.63
2019-03-03T13:43:14.526Z,15.50
2019-03-03T13:47:19.880Z,15.40
2019-03-03T13:51:25.301Z,11.70
2019-03-03T13:55:30.596Z,12.17
2019-03-03T13:59:35.850Z,16.93
2019-03-03T14:03:41.137Z,19.07
2019-03-03T14:07:46.663Z,17.10
2019-03-03T14:11:51.947Z,18.87
2019-03-03T14:15:57.274Z,16.67
2019-03-03T14:20:02.583Z,17.07
2019-03-03T14:24:08.886Z,10.83
2019-03-03T14:28:14.175Z,12.63
2019-03-03T14:32:19.544Z,13.73
2019-03-03T14:36:24.845Z,18.90
2019-03-03T14:40:30.182Z,17.23
2019-03-03T14:44:35.436Z,14.77
2019-03-03T14:48:40.792Z,14.93
2019-03-03T14:52:47.809Z,11.43
2019-03-03T14:56:53.134Z,14.40
2019-03-03T15:00:58.457Z,9.47
2019-03-03T15:05:04.154Z,12.60
2019-03-03T15:09:11.098Z,13.23
2019-03-03T15:13:17.175Z,16.97
2019-03-03T15:17:23.434Z,10.90
2019-03-03T15:21:28.948Z,17.20
2019-03-03T15:25:34.287Z,13.20
2019-03-03T15:29:40.321Z,15.83
2019-03-03T15:33:47.547Z,15.07
2019-03-03T15:37:53.364Z,18.50
2019-03-03T15:41:58.734Z,12.87
2019-03-03T15:46:04.098Z,14.23
2019-03-03T15:50:10.598Z,12.90
2019-03-03T15:54:15.886Z,11.13
2019-03-03T15:58:21.176Z,11.63
2019-03-03T16:02:26.457Z,13.83
2019-03-03T16:06:31.747Z,11.93
2019-03-03T16:10:37.026Z,12.60
2019-03-03T16:14:42.319Z,14.80
2019-03-03T16:18:47.606Z,16.37
2019-03-03T16:22:53.162Z,13.87
2019-03-03T16:26:58.442Z,21.57
2019-03-03T16:31:03.790Z,11.23
2019-03-03T16:35:09.789Z,14.47
2019-03-03T16:39:15.423Z,17.57
2019-03-03T16:43:20.697Z,9.53
2019-03-03T16:47:25.964Z,14.73
2019-03-03T16:51:31.242Z,15.03
2019-03-03T16:55:37.538Z,17.93
2019-03-03T16:59:42.987Z,12.63
2019-03-03T17:03:48.262Z,12.43
2019-03-03T17:07:53.619Z,12.50
2019-03-03T17:11:58.925Z,9.53
2019-03-03T17:16:04.279Z,13.23
2019-03-03T17:20:10.578Z,13.83
2019-03-03T17:24:15.945Z,13.47
2019-03-03T17:28:21.477Z,13.37
2019-03-03T17:32:26.910Z,16.17
2019-03-03T17:36:33.152Z,17.77
2019-03-03T17:40:38.405Z,12.20
2019-03-03T17:44:44.007Z,12.03
2019-03-03T17:48:49.701Z,16.83
2019-03-03T17:52:55.343Z,12.17
2019-03-03T17:57:00.843Z,13.67
2019-03-03T18:01:06.434Z,12.27
2019-03-03T18:05:12.250Z,9.03
2019-03-03T18:09:17.603Z,12.90
2019-03-03T18:13:22.870Z,8.07
2019-03-03T18:17:28.153Z,10.63
2019-03-03T18:21:33.464Z,11.40
2019-03-03T18:25:38.746Z,16.13
2019-03-03T18:29:44.018Z,10.47
2019-03-03T18:33:49.292Z,12.20
2019-03-03T18:37:54.586Z,11.77
2019-03-03T18:41:59.897Z,13.73
2019-03-03T18:46:05.867Z,13.63
2019-03-03T18:50:14.185Z,12.70
2019-03-03T18:54:19.459Z,11.53
2019-03-03T18:58:26.518Z,11.67
2019-03-03T19:02:32.090Z,12.58
2019-03-03T19:06:38.448Z,12.77
2019-03-03T19:10:43.991Z,12.73
2019-03-03T19:14:49.344Z,11.67
2019-03-03T19:18:54.609Z,11.87
2019-03-03T19:22:59.902Z,12.00
2019-03-03T19:27:05.219Z,14.53
2019-03-03T19:31:10.559Z,11.00
2019-03-03T19:35:15.962Z,11.70
2019-03-03T19:39:21.484Z,9.17
2019-03-03T19:43:28.148Z,11.07
2019-03-03T19:47:34.028Z,11.30
2019-03-03T19:51:39.385Z,10.37
2019-03-03T19:55:44.805Z,19.67
2019-03-03T19:59:50.186Z,11.47
2019-03-03T20:03:55.608Z,10.27
2019-03-03T20:08:01.130Z,11.03
2019-03-03T20:12:06.568Z,10.57
2019-03-03T20:16:11.853Z,10.13
2019-03-03T20:20:18.286Z,15.57
2019-03-03T20:24:23.742Z,10.23
2019-03-03T20:28:29.101Z,7.53
2019-03-03T20:32:34.683Z,10.87
2019-03-03T20:36:39.953Z,9.17
2019-03-03T20:40:45.230Z,10.60
2019-03-03T20:44:50.511Z,13.87
2019-03-03T20:48:55.791Z,12.50
2019-03-03T20:53:01.089Z,12.33
2019-03-03T20:57:06.355Z,8.73
2019-03-03T21:01:11.628Z,14.50
2019-03-03T21:05:18.251Z,12.33
2019-03-03T21:09:23.540Z,11.77
2019-03-03T21:13:28.798Z,12.93
2019-03-03T21:17:34.051Z,11.33
2019-03-03T21:21:39.365Z,11.37
2019-03-03T21:25:44.714Z,9.43
2019-03-03T21:29:50.043Z,6.70
2019-03-03T21:33:55.312Z,11.33
2019-03-03T21:38:00.633Z,12.87
2019-03-03T21:42:05.955Z,10.43
2019-03-03T21:46:11.363Z,12.70
2019-03-03T21:50:22.010Z,13.70
2019-03-03T21:54:27.297Z,10.80
2019-03-03T21:58:32.687Z,8.60
2019-03-03T22:02:37.942Z,15.67
2019-03-03T22:06:43.221Z,12.60
2019-03-03T22:10:48.505Z,10.80
2019-03-03T22:14:53.782Z,9.90
2019-03-03T22:18:59.063Z,12.10
2019-03-03T22:23:04.492Z,13.03
2019-03-03T22:27:09.775Z,11.97
2019-03-03T22:31:15.058Z,13.50
2019-03-03T22:35:20.338Z,9.73
2019-03-03T22:39:25.620Z,9.43
2019-03-03T22:43:30.866Z,10.67
2019-03-03T22:47:36.197Z,11.20
2019-03-03T22:51:41.529Z,8.37
2019-03-03T22:55:46.801Z,10.40
2019-03-03T22:59:52.125Z,17.97
2019-03-03T23:04:00.494Z,10.17
2019-03-03T23:08:08.835Z,9.33
2019-03-03T23:12:38.430Z,13.33
2019-03-03T23:16:49.487Z,10.60
2019-03-03T23:21:06.903Z,13.57
2019-03-03T23:25:27.312Z,15.43
2019-03-03T23:29:32.686Z,11.30
2019-03-03T23:33:37.995Z,13.90
2019-03-03T23:37:43.216Z,10.10
2019-03-03T23:41:48.534Z,12.40
2019-03-03T23:45:54.875Z,12.17
2019-03-03T23:50:00.312Z,9.80
2019-03-03T23:54:05.569Z,12.20
2019-03-03T23:58:10.917Z,12.87
